Terminal Aerodrome Forecast
Issued by NWS Caribou, ME

Home | Current Version | Previous Version | Text Only | Print | Product List | Glossary On
Versions: 1 2 3 4 5 6 7 8 9 10 11 12 13 14 15 16 17 18 19
000
FTUS41 KCAR 010500
TAFBGR
TAF
KBGR 010536Z 0106/0206 VRB03KT 3SM BR BKN007
     FM010800 VRB03KT 1SM BR BKN003
     FM011200 20004KT P6SM BKN012
     FM011400 19005KT P6SM BKN035
     FM011600 19008KT P6SM SCT045
     FM020400 17006KT P6SM BKN035=

USA.gov is the U.S. government's official web portal to all federal, state and local government web resources and services.